sensor_id;sensor_type;location;lat;lon;timestamp;pressure;altitude;pressure_sealevel;temperature;humidity
49377;BME280;35253;34.688;33.040;2024-01-25T00:01:07;101288.59;;;14.78;100.00
49377;BME280;35253;34.688;33.040;2024-01-25T00:03:33;101297.78;;;14.74;100.00
49377;BME280;35253;34.688;33.040;2024-01-25T00:05:59;101293.75;;;14.81;100.00
49377;BME280;35253;34.688;33.040;2024-01-25T00:08:25;101296.56;;;14.93;100.00
49377;BME280;35253;34.688;33.040;2024-01-25T00:10:51;101292.47;;;14.87;100.00
49377;BME280;35253;34.688;33.040;2024-01-25T00:13:16;101288.50;;;14.93;100.00
49377;BME280;35253;34.688;33.040;2024-01-25T00:15:42;101290.78;;;14.99;100.00
49377;BME280;35253;34.688;33.040;2024-01-25T00:18:08;101295.28;;;14.98;100.00
49377;BME280;35253;34.688;33.040;2024-01-25T00:20:33;101291.94;;;14.95;100.00
49377;BME280;35253;34.688;33.040;2024-01-25T00:22:59;101290.50;;;14.76;100.00
49377;BME280;35253;34.688;33.040;2024-01-25T00:25:25;101293.22;;;14.89;100.00
49377;BME280;35253;34.688;33.040;2024-01-25T00:27:50;101285.81;;;14.93;100.00
49377;BME280;35253;34.688;33.040;2024-01-25T00:30:16;101276.38;;;15.00;100.00
49377;BME280;35253;34.688;33.040;2024-01-25T00:32:41;101278.75;;;14.92;100.00
49377;BME280;35253;34.688;33.040;2024-01-25T00:35:08;101279.78;;;14.89;100.00
49377;BME280;35253;34.688;33.040;2024-01-25T00:37:36;101280.75;;;14.88;100.00
49377;BME280;35253;34.688;33.040;2024-01-25T00:40:03;101280.00;;;14.86;100.00
49377;BME280;35253;34.688;33.040;2024-01-25T00:42:30;101276.56;;;14.97;100.00
49377;BME280;35253;34.688;33.040;2024-01-25T00:44:56;101274.44;;;15.02;100.00
49377;BME280;35253;34.688;33.040;2024-01-25T00:47:22;101278.09;;;15.01;100.00
49377;BME280;35253;34.688;33.040;2024-01-25T00:49:48;101276.78;;;14.94;100.00
49377;BME280;35253;34.688;33.040;2024-01-25T00:52:14;101278.09;;;15.01;100.00
49377;BME280;35253;34.688;33.040;2024-01-25T00:54:40;101278.31;;;14.98;100.00
49377;BME280;35253;34.688;33.040;2024-01-25T00:57:06;101270.56;;;14.93;100.00
49377;BME280;35253;34.688;33.040;2024-01-25T00:59:32;101268.00;;;14.92;100.00
49377;BME280;35253;34.688;33.040;2024-01-25T01:01:58;101269.28;;;14.86;100.00
49377;BME280;35253;34.688;33.040;2024-01-25T01:04:25;101265.72;;;14.85;100.00
49377;BME280;35253;34.688;33.040;2024-01-25T01:06:51;101267.53;;;14.85;100.00
49377;BME280;35253;34.688;33.040;2024-01-25T01:09:17;101276.25;;;14.88;100.00
49377;BME280;35253;34.688;33.040;2024-01-25T01:11:43;101263.56;;;14.78;100.00
49377;BME280;35253;34.688;33.040;2024-01-25T01:14:09;101264.00;;;14.84;100.00
49377;BME280;35253;34.688;33.040;2024-01-25T01:16:34;101265.06;;;14.82;100.00
49377;BME280;35253;34.688;33.040;2024-01-25T01:19:01;101263.03;;;14.85;100.00
49377;BME280;35253;34.688;33.040;2024-01-25T01:21:32;101263.03;;;14.85;100.00
49377;BME280;35253;34.688;33.040;2024-01-25T01:23:58;101264.31;;;14.93;100.00
49377;BME280;35253;34.688;33.040;2024-01-25T01:26:23;101254.13;;;14.98;100.00
49377;BME280;35253;34.688;33.040;2024-01-25T01:28:49;101251.91;;;14.92;100.00
49377;BME280;35253;34.688;33.040;2024-01-25T01:31:15;101259.72;;;14.95;100.00
49377;BME280;35253;34.688;33.040;2024-01-25T01:33:40;101262.41;;;14.95;100.00
49377;BME280;35253;34.688;33.040;2024-01-25T01:36:06;101268.97;;;14.91;100.00
49377;BME280;35253;34.688;33.040;2024-01-25T01:38:32;101260.47;;;14.97;100.00
49377;BME280;35253;34.688;33.040;2024-01-25T01:40:58;101261.34;;;14.97;100.00
49377;BME280;35253;34.688;33.040;2024-01-25T01:43:23;101253.72;;;14.91;100.00
49377;BME280;35253;34.688;33.040;2024-01-25T01:45:49;101251.78;;;15.06;100.00
49377;BME280;35253;34.688;33.040;2024-01-25T01:48:16;101248.78;;;15.10;100.00
49377;BME280;35253;34.688;33.040;2024-01-25T01:50:43;101248.69;;;15.12;100.00
49377;BME280;35253;34.688;33.040;2024-01-25T01:53:10;101254.47;;;15.06;100.00
49377;BME280;35253;34.688;33.040;2024-01-25T01:55:36;101257.72;;;15.11;100.00
49377;BME280;35253;34.688;33.040;2024-01-25T01:58:03;101246.63;;;15.03;100.00
49377;BME280;35253;34.688;33.040;2024-01-25T02:00:30;101243.94;;;15.03;100.00
49377;BME280;35253;34.688;33.040;2024-01-25T02:02:55;101261.78;;;15.04;100.00
49377;BME280;35253;34.688;33.040;2024-01-25T02:05:24;101251.03;;;15.04;100.00
49377;BME280;35253;34.688;33.040;2024-01-25T02:07:50;101250.28;;;15.02;100.00
49377;BME280;35253;34.688;33.040;2024-01-25T02:10:17;101245.97;;;14.86;100.00
49377;BME280;35253;34.688;33.040;2024-01-25T02:12:43;101250.09;;;14.65;100.00
49377;BME280;35253;34.688;33.040;2024-01-25T02:15:09;101240.59;;;14.47;100.00
49377;BME280;35253;34.688;33.040;2024-01-25T02:17:34;101247.78;;;14.32;100.00
49377;BME280;35253;34.688;33.040;2024-01-25T02:20:00;101250.19;;;14.37;100.00
49377;BME280;35253;34.688;33.040;2024-01-25T02:22:28;101245.00;;;14.34;100.00
49377;BME280;35253;34.688;33.040;2024-01-25T02:24:54;101246.91;;;14.32;100.00
49377;BME280;35253;34.688;33.040;2024-01-25T02:27:20;101242.63;;;14.43;100.00
49377;BME280;35253;34.688;33.040;2024-01-25T02:29:45;101242.34;;;14.34;100.00
49377;BME280;35253;34.688;33.040;2024-01-25T02:32:11;101246.91;;;14.32;100.00
49377;BME280;35253;34.688;33.040;2024-01-25T02:34:37;101246.25;;;14.28;100.00
49377;BME280;35253;34.688;33.040;2024-01-25T02:37:02;101251.84;;;14.25;100.00
49377;BME280;35253;34.688;33.040;2024-01-25T02:39:28;101248.47;;;14.22;100.00
49377;BME280;35253;34.688;33.040;2024-01-25T02:41:54;101252.22;;;14.19;100.00
49377;BME280;35253;34.688;33.040;2024-01-25T02:44:19;101248.13;;;14.14;100.00
49377;BME280;35253;34.688;33.040;2024-01-25T02:46:45;101246.81;;;14.07;100.00
49377;BME280;35253;34.688;33.040;2024-01-25T02:49:12;101241.06;;;14.13;100.00
49377;BME280;35253;34.688;33.040;2024-01-25T02:51:37;101240.81;;;14.30;100.00
49377;BME280;35253;34.688;33.040;2024-01-25T02:54:03;101238.78;;;14.48;100.00
49377;BME280;35253;34.688;33.040;2024-01-25T02:56:29;101234.41;;;14.59;100.00
49377;BME280;35253;34.688;33.040;2024-01-25T02:59:01;101236.78;;;14.64;100.00
49377;BME280;35253;34.688;33.040;2024-01-25T03:01:26;101244.91;;;14.62;100.00
49377;BME280;35253;34.688;33.040;2024-01-25T03:03:53;101242.56;;;14.70;100.00
49377;BME280;35253;34.688;33.040;2024-01-25T03:06:19;101244.66;;;14.53;100.00
49377;BME280;35253;34.688;33.040;2024-01-25T03:08:45;101241.47;;;14.48;100.00
49377;BME280;35253;34.688;33.040;2024-01-25T03:11:10;101238.03;;;14.58;100.00
49377;BME280;35253;34.688;33.040;2024-01-25T03:13:36;101231.31;;;14.65;100.00
49377;BME280;35253;34.688;33.040;2024-01-25T03:16:02;101235.50;;;14.69;100.00
49377;BME280;35253;34.688;33.040;2024-01-25T03:18:27;101233.31;;;14.62;100.00
49377;BME280;35253;34.688;33.040;2024-01-25T03:20:53;101239.72;;;14.73;100.00
49377;BME280;35253;34.688;33.040;2024-01-25T03:23:19;101239.41;;;14.78;100.00
49377;BME280;35253;34.688;33.040;2024-01-25T03:25:44;101241.56;;;14.85;100.00
49377;BME280;35253;34.688;33.040;2024-01-25T03:28:10;101244.97;;;14.87;100.00
49377;BME280;35253;34.688;33.040;2024-01-25T03:30:38;101241.47;;;14.87;100.00
49377;BME280;35253;34.688;33.040;2024-01-25T03:33:04;101248.44;;;14.89;100.00
49377;BME280;35253;34.688;33.040;2024-01-25T03:35:29;101241.56;;;14.85;100.00
49377;BME280;35253;34.688;33.040;2024-01-25T03:37:55;101248.13;;;14.94;100.00
49377;BME280;35253;34.688;33.040;2024-01-25T03:40:21;101249.94;;;14.94;100.00
49377;BME280;35253;34.688;33.040;2024-01-25T03:42:46;101247.25;;;14.94;100.00
49377;BME280;35253;34.688;33.040;2024-01-25T03:45:12;101247.03;;;14.97;100.00
49377;BME280;35253;34.688;33.040;2024-01-25T03:47:38;101249.53;;;14.87;100.00
49377;BME280;35253;34.688;33.040;2024-01-25T03:50:03;101245.44;;;14.94;100.00
49377;BME280;35253;34.688;33.040;2024-01-25T03:52:29;101234.78;;;14.93;100.00
49377;BME280;35253;34.688;33.040;2024-01-25T03:54:55;101236.94;;;14.87;100.00
49377;BME280;35253;34.688;33.040;2024-01-25T03:57:21;101233.09;;;14.92;100.00
49377;BME280;35253;34.688;33.040;2024-01-25T03:59:47;101239.44;;;14.91;100.00
49377;BME280;35253;34.688;33.040;2024-01-25T04:02:12;101238.16;;;14.96;100.00
49377;BME280;35253;34.688;33.040;2024-01-25T04:04:38;101235.13;;;15.01;100.00
49377;BME280;35253;34.688;33.040;2024-01-25T04:07:04;101229.66;;;15.02;100.00
49377;BME280;35253;34.688;33.040;2024-01-25T04:09:29;101236.66;;;15.05;100.00
49377;BME280;35253;34.688;33.040;2024-01-25T04:11:56;101241.88;;;14.94;100.00
49377;BME280;35253;34.688;33.040;2024-01-25T04:14:21;101240.38;;;14.89;100.00
49377;BME280;35253;34.688;33.040;2024-01-25T04:16:47;101247.78;;;14.86;100.00
49377;BME280;35253;34.688;33.040;2024-01-25T04:19:13;101248.44;;;14.89;100.00
49377;BME280;35253;34.688;33.040;2024-01-25T04:21:38;101249.72;;;14.97;100.00
49377;BME280;35253;34.688;33.040;2024-01-25T04:24:04;101253.31;;;14.70;100.00
49377;BME280;35253;34.688;33.040;2024-01-25T04:26:30;101261.44;;;14.56;100.00
49377;BME280;35253;34.688;33.040;2024-01-25T04:28:56;101262.44;;;14.41;100.00
49377;BME280;35253;34.688;33.040;2024-01-25T04:31:21;101261.50;;;14.28;100.00
49377;BME280;35253;34.688;33.040;2024-01-25T04:33:47;101260.31;;;14.46;100.00
49377;BME280;35253;34.688;33.040;2024-01-25T04:36:13;101253.78;;;14.50;100.00
49377;BME280;35253;34.688;33.040;2024-01-25T04:38:38;101253.03;;;14.48;100.00
49377;BME280;35253;34.688;33.040;2024-01-25T04:41:04;101253.22;;;14.45;100.00
49377;BME280;35253;34.688;33.040;2024-01-25T04:43:34;101254.88;;;14.33;100.00
49377;BME280;35253;34.688;33.040;2024-01-25T04:46:02;101259.59;;;14.30;100.00
49377;BME280;35253;34.688;33.040;2024-01-25T04:48:28;101265.66;;;14.05;100.00
49377;BME280;35253;34.688;33.040;2024-01-25T04:50:56;101253.84;;;14.22;100.00
49377;BME280;35253;34.688;33.040;2024-01-25T04:53:23;101253.16;;;14.32;100.00
49377;BME280;35253;34.688;33.040;2024-01-25T04:55:49;101261.44;;;14.15;100.00
49377;BME280;35253;34.688;33.040;2024-01-25T04:58:14;101253.31;;;14.17;100.00
49377;BME280;35253;34.688;33.040;2024-01-25T05:00:40;101257.44;;;14.08;100.00
49377;BME280;35253;34.688;33.040;2024-01-25T05:03:05;101259.84;;;13.98;100.00
49377;BME280;35253;34.688;33.040;2024-01-25T05:05:31;101252.81;;;14.10;100.00
49377;BME280;35253;34.688;33.040;2024-01-25T05:07:57;101254.84;;;14.07;100.00
49377;BME280;35253;34.688;33.040;2024-01-25T05:10:22;101261.72;;;14.25;100.00
49377;BME280;35253;34.688;33.040;2024-01-25T05:12:48;101263.88;;;14.32;100.00
49377;BME280;35253;34.688;33.040;2024-01-25T05:15:14;101259.56;;;14.44;100.00
49377;BME280;35253;34.688;33.040;2024-01-25T05:17:40;101258.56;;;14.59;100.00
49377;BME280;35253;34.688;33.040;2024-01-25T05:20:06;101262.34;;;14.69;100.00
49377;BME280;35253;34.688;33.040;2024-01-25T05:22:32;101270.53;;;14.80;100.00
49377;BME280;35253;34.688;33.040;2024-01-25T05:24:57;101260.91;;;14.91;100.00
49377;BME280;35253;34.688;33.040;2024-01-25T05:27:23;101272.31;;;14.67;100.00
49377;BME280;35253;34.688;33.040;2024-01-25T05:29:49;101262.75;;;14.63;100.00
49377;BME280;35253;34.688;33.040;2024-01-25T05:32:14;101275.94;;;14.39;100.00
49377;BME280;35253;34.688;33.040;2024-01-25T05:34:40;101271.94;;;14.47;100.00
49377;BME280;35253;34.688;33.040;2024-01-25T05:37:06;101281.59;;;14.49;100.00
49377;BME280;35253;34.688;33.040;2024-01-25T05:39:32;101272.44;;;14.39;100.00
49377;BME280;35253;34.688;33.040;2024-01-25T05:41:58;101272.22;;;14.28;100.00
49377;BME280;35253;34.688;33.040;2024-01-25T05:44:23;101281.13;;;14.42;100.00
49377;BME280;35253;34.688;33.040;2024-01-25T05:46:49;101279.94;;;14.61;100.00
49377;BME280;35253;34.688;33.040;2024-01-25T05:49:14;101275.88;;;14.68;100.00
49377;BME280;35253;34.688;33.040;2024-01-25T05:51:40;101280.75;;;14.61;100.00
49377;BME280;35253;34.688;33.040;2024-01-25T05:54:05;101279.06;;;14.60;100.00
49377;BME280;35253;34.688;33.040;2024-01-25T05:56:31;101286.59;;;14.68;100.00
49377;BME280;35253;34.688;33.040;2024-01-25T05:58:57;101291.31;;;14.64;100.00
49377;BME280;35253;34.688;33.040;2024-01-25T06:01:22;101296.03;;;14.61;100.00
49377;BME280;35253;34.688;33.040;2024-01-25T06:03:48;101297.69;;;14.49;100.00
49377;BME280;35253;34.688;33.040;2024-01-25T06:06:14;101298.16;;;14.56;100.00
49377;BME280;35253;34.688;33.040;2024-01-25T06:08:39;101292.72;;;14.43;100.00
49377;BME280;35253;34.688;33.040;2024-01-25T06:11:05;101285.22;;;14.48;100.00
49377;BME280;35253;34.688;33.040;2024-01-25T06:13:31;101286.84;;;14.77;100.00
49377;BME280;35253;34.688;33.040;2024-01-25T06:15:57;101291.00;;;14.96;100.00
49377;BME280;35253;34.688;33.040;2024-01-25T06:18:22;101297.59;;;15.17;100.00
49377;BME280;35253;34.688;33.040;2024-01-25T06:20:48;101289.13;;;15.36;100.00
49377;BME280;35253;34.688;33.040;2024-01-25T06:23:15;101284.19;;;15.42;100.00
49377;BME280;35253;34.688;33.040;2024-01-25T06:25:41;101282.94;;;15.60;100.00
49377;BME280;35253;34.688;33.040;2024-01-25T06:28:06;101277.00;;;15.68;100.00
49377;BME280;35253;34.688;33.040;2024-01-25T06:30:32;101280.66;;;15.80;100.00
49377;BME280;35253;34.688;33.040;2024-01-25T06:32:57;101276.25;;;15.78;100.00
49377;BME280;35253;34.688;33.040;2024-01-25T06:35:23;101281.59;;;15.91;100.00
49377;BME280;35253;34.688;33.040;2024-01-25T06:37:49;101291.38;;;16.05;100.00
49377;BME280;35253;34.688;33.040;2024-01-25T06:40:15;101293.19;;;16.17;100.00
49377;BME280;35253;34.688;33.040;2024-01-25T06:42:40;101287.84;;;16.28;100.00
49377;BME280;35253;34.688;33.040;2024-01-25T06:45:08;101288.66;;;16.41;100.00
49377;BME280;35253;34.688;33.040;2024-01-25T06:47:34;101282.28;;;16.55;100.00
49377;BME280;35253;34.688;33.040;2024-01-25T06:50:00;101279.28;;;16.59;100.00
49377;BME280;35253;34.688;33.040;2024-01-25T06:52:26;101279.91;;;16.63;100.00
49377;BME280;35253;34.688;33.040;2024-01-25T06:54:52;101281.66;;;16.51;100.00
49377;BME280;35253;34.688;33.040;2024-01-25T06:57:17;101277.84;;;16.30;100.00
49377;BME280;35253;34.688;33.040;2024-01-25T06:59:43;101280.59;;;16.41;100.00
49377;BME280;35253;34.688;33.040;2024-01-25T07:02:09;101284.56;;;16.61;100.00
49377;BME280;35253;34.688;33.040;2024-01-25T07:04:34;101276.94;;;16.42;100.00
49377;BME280;35253;34.688;33.040;2024-01-25T07:07:00;101282.63;;;16.50;100.00
49377;BME280;35253;34.688;33.040;2024-01-25T07:09:26;101279.91;;;16.50;100.00
49377;BME280;35253;34.688;33.040;2024-01-25T07:11:51;101273.00;;;16.35;100.00
49377;BME280;35253;34.688;33.040;2024-01-25T07:14:17;101278.91;;;16.40;100.00
49377;BME280;35253;34.688;33.040;2024-01-25T07:16:42;101271.09;;;16.61;100.00
49377;BME280;35253;34.688;33.040;2024-01-25T07:19:08;101278.44;;;16.46;100.00
49377;BME280;35253;34.688;33.040;2024-01-25T07:21:34;101274.78;;;16.47;100.00
49377;BME280;35253;34.688;33.040;2024-01-25T07:24:02;101268.72;;;16.56;100.00
49377;BME280;35253;34.688;33.040;2024-01-25T07:26:28;101266.59;;;16.49;100.00
49377;BME280;35253;34.688;33.040;2024-01-25T07:28:53;101261.44;;;16.58;100.00
49377;BME280;35253;34.688;33.040;2024-01-25T07:31:24;101265.09;;;16.57;100.00
49377;BME280;35253;34.688;33.040;2024-01-25T07:33:51;101253.41;;;16.57;100.00
49377;BME280;35253;34.688;33.040;2024-01-25T07:36:17;101255.31;;;16.67;100.00
49377;BME280;35253;34.688;33.040;2024-01-25T07:38:44;101261.34;;;16.71;100.00
49377;BME280;35253;34.688;33.040;2024-01-25T07:41:12;101263.47;;;16.79;100.00
49377;BME280;35253;34.688;33.040;2024-01-25T07:43:38;101264.19;;;16.81;100.00
49377;BME280;35253;34.688;33.040;2024-01-25T07:46:04;101267.13;;;16.78;100.00
49377;BME280;35253;34.688;33.040;2024-01-25T07:48:29;101264.72;;;16.86;100.00
49377;BME280;35253;34.688;33.040;2024-01-25T07:50:56;101262.94;;;16.97;100.00
49377;BME280;35253;34.688;33.040;2024-01-25T07:53:22;101254.25;;;17.05;100.00
49377;BME280;35253;34.688;33.040;2024-01-25T07:55:48;101251.66;;;17.03;100.00
49377;BME280;35253;34.688;33.040;2024-01-25T07:58:15;101253.78;;;17.11;100.00
49377;BME280;35253;34.688;33.040;2024-01-25T08:00:40;101254.00;;;17.08;100.00
49377;BME280;35253;34.688;33.040;2024-01-25T08:03:08;101250.34;;;17.09;100.00
49377;BME280;35253;34.688;33.040;2024-01-25T08:05:33;101253.06;;;17.20;100.00
49377;BME280;35253;34.688;33.040;2024-01-25T08:07:59;101255.53;;;17.34;100.00
49377;BME280;35253;34.688;33.040;2024-01-25T08:10:24;101249.63;;;17.18;100.00
49377;BME280;35253;34.688;33.040;2024-01-25T08:12:50;101246.34;;;17.26;100.00
49377;BME280;35253;34.688;33.040;2024-01-25T08:15:16;101229.69;;;17.32;100.00
49377;BME280;35253;34.688;33.040;2024-01-25T08:17:42;101239.38;;;17.34;100.00
49377;BME280;35253;34.688;33.040;2024-01-25T08:20:08;101233.75;;;17.37;100.00
49377;BME280;35253;34.688;33.040;2024-01-25T08:22:34;101227.88;;;17.43;100.00
49377;BME280;35253;34.688;33.040;2024-01-25T08:25:00;101244.03;;;17.43;100.00
49377;BME280;35253;34.688;33.040;2024-01-25T08:27:26;101245.75;;;17.44;100.00
49377;BME280;35253;34.688;33.040;2024-01-25T08:29:51;101241.22;;;17.56;100.00
49377;BME280;35253;34.688;33.040;2024-01-25T08:32:17;101235.28;;;17.64;100.00
49377;BME280;35253;34.688;33.040;2024-01-25T08:34:42;101231.84;;;17.62;100.00
49377;BME280;35253;34.688;33.040;2024-01-25T08:37:08;101231.84;;;17.62;100.00
49377;BME280;35253;34.688;33.040;2024-01-25T08:39:34;101231.06;;;17.48;100.00
49377;BME280;35253;34.688;33.040;2024-01-25T08:41:59;101239.16;;;17.48;100.00
49377;BME280;35253;34.688;33.040;2024-01-25T08:44:31;101220.88;;;17.41;100.00
49377;BME280;35253;34.688;33.040;2024-01-25T08:46:57;101227.38;;;17.49;100.00
49377;BME280;35253;34.688;33.040;2024-01-25T08:49:22;101232.06;;;17.70;100.00
49377;BME280;35253;34.688;33.040;2024-01-25T08:51:48;101225.91;;;17.56;100.00
49377;BME280;35253;34.688;33.040;2024-01-25T08:54:14;101227.75;;;17.56;100.00
49377;BME280;35253;34.688;33.040;2024-01-25T08:56:39;101228.16;;;17.63;100.00
49377;BME280;35253;34.688;33.040;2024-01-25T08:59:05;101214.91;;;17.71;100.00
49377;BME280;35253;34.688;33.040;2024-01-25T09:01:31;101216.28;;;17.76;100.00
49377;BME280;35253;34.688;33.040;2024-01-25T09:03:56;101217.13;;;17.66;100.00
49377;BME280;35253;34.688;33.040;2024-01-25T09:06:27;101214.91;;;17.71;100.00
49377;BME280;35253;34.688;33.040;2024-01-25T09:08:53;101212.13;;;17.72;100.00
49377;BME280;35253;34.688;33.040;2024-01-25T09:11:19;101216.38;;;17.75;100.00
49377;BME280;35253;34.688;33.040;2024-01-25T09:13:44;101212.69;;;17.65;100.00
49377;BME280;35253;34.688;33.040;2024-01-25T09:16:13;101215.53;;;17.74;100.00
49377;BME280;35253;34.688;33.040;2024-01-25T09:18:39;101209.28;;;17.74;100.00
49377;BME280;35253;34.688;33.040;2024-01-25T09:21:04;101206.34;;;17.77;100.00
49377;BME280;35253;34.688;33.040;2024-01-25T09:23:30;101189.91;;;17.69;100.00
49377;BME280;35253;34.688;33.040;2024-01-25T09:25:55;101192.09;;;17.86;100.00
49377;BME280;35253;34.688;33.040;2024-01-25T09:28:21;101184.97;;;17.96;100.00
49377;BME280;35253;34.688;33.040;2024-01-25T09:30:47;101178.88;;;17.72;100.00
49377;BME280;35253;34.688;33.040;2024-01-25T09:33:13;101168.44;;;17.78;100.00
49377;BME280;35253;34.688;33.040;2024-01-25T09:35:39;101166.34;;;17.82;100.00
49377;BME280;35253;34.688;33.040;2024-01-25T09:38:05;101161.69;;;17.84;100.00
49377;BME280;35253;34.688;33.040;2024-01-25T09:40:31;101153.81;;;18.03;100.00
49377;BME280;35253;34.688;33.040;2024-01-25T09:42:58;101162.63;;;18.16;100.00
49377;BME280;35253;34.688;33.040;2024-01-25T09:45:24;101155.78;;;18.01;100.00
49377;BME280;35253;34.688;33.040;2024-01-25T09:47:51;101158.94;;;18.06;100.00
49377;BME280;35253;34.688;33.040;2024-01-25T09:50:16;101156.69;;;18.22;100.00
49377;BME280;35253;34.688;33.040;2024-01-25T09:52:50;101147.09;;;18.29;100.00
49377;BME280;35253;34.688;33.040;2024-01-25T09:55:24;101147.94;;;17.98;100.00
49377;BME280;35253;34.688;33.040;2024-01-25T09:57:53;101146.44;;;18.05;100.00
49377;BME280;35253;34.688;33.040;2024-01-25T10:00:22;101133.81;;;18.06;100.00
49377;BME280;35253;34.688;33.040;2024-01-25T10:02:53;101127.16;;;18.21;100.00
49377;BME280;35253;34.688;33.040;2024-01-25T10:05:18;101119.63;;;18.24;100.00
49377;BME280;35253;34.688;33.040;2024-01-25T10:07:45;101121.88;;;18.08;100.00
49377;BME280;35253;34.688;33.040;2024-01-25T10:10:12;101111.84;;;17.99;100.00
49377;BME280;35253;34.688;33.040;2024-01-25T10:12:40;101109.13;;;18.10;100.00
49377;BME280;35253;34.688;33.040;2024-01-25T10:15:06;101104.91;;;18.28;100.00
49377;BME280;35253;34.688;33.040;2024-01-25T10:17:32;101097.50;;;18.30;100.00
49377;BME280;35253;34.688;33.040;2024-01-25T10:19:58;101110.84;;;18.11;100.00
49377;BME280;35253;34.688;33.040;2024-01-25T10:22:24;101100.53;;;18.16;100.00
49377;BME280;35253;34.688;33.040;2024-01-25T10:24:50;101095.34;;;18.24;100.00
49377;BME280;35253;34.688;33.040;2024-01-25T10:27:17;101096.13;;;18.15;100.00
49377;BME280;35253;34.688;33.040;2024-01-25T10:29:42;101088.69;;;18.08;100.00
49377;BME280;35253;34.688;33.040;2024-01-25T10:32:08;101090.41;;;18.29;100.00
49377;BME280;35253;34.688;33.040;2024-01-25T10:34:38;101092.84;;;18.32;100.00
49377;BME280;35253;34.688;33.040;2024-01-25T10:37:07;101071.66;;;18.28;100.00
49377;BME280;35253;34.688;33.040;2024-01-25T10:39:33;101074.34;;;18.28;100.00
49377;BME280;35253;34.688;33.040;2024-01-25T10:42:00;101062.00;;;18.14;100.00
49377;BME280;35253;34.688;33.040;2024-01-25T10:44:26;101069.22;;;18.25;100.00
49377;BME280;35253;34.688;33.040;2024-01-25T10:46:52;101059.75;;;18.51;100.00
49377;BME280;35253;34.688;33.040;2024-01-25T10:49:20;101060.34;;;18.55;100.00
49377;BME280;35253;34.688;33.040;2024-01-25T10:51:47;101055.19;;;18.52;100.00
49377;BME280;35253;34.688;33.040;2024-01-25T10:54:14;101052.63;;;18.71;100.00
49377;BME280;35253;34.688;33.040;2024-01-25T10:56:46;101047.50;;;18.68;100.00
49377;BME280;35253;34.688;33.040;2024-01-25T10:59:13;101060.66;;;18.61;100.00
49377;BME280;35253;34.688;33.040;2024-01-25T11:01:44;101045.03;;;18.55;100.00
49377;BME280;35253;34.688;33.040;2024-01-25T11:04:15;101057.00;;;18.30;100.00
49377;BME280;35253;34.688;33.040;2024-01-25T11:06:44;101058.75;;;18.31;100.00
49377;BME280;35253;34.688;33.040;2024-01-25T11:09:19;101049.03;;;18.08;100.00
49377;BME280;35253;34.688;33.040;2024-01-25T11:11:47;101053.31;;;17.90;100.00
49377;BME280;35253;34.688;33.040;2024-01-25T11:14:16;101055.47;;;17.96;100.00
49377;BME280;35253;34.688;33.040;2024-01-25T11:16:44;101052.06;;;17.94;100.00
49377;BME280;35253;34.688;33.040;2024-01-25T11:19:19;101041.28;;;17.83;100.00
49377;BME280;35253;34.688;33.040;2024-01-25T11:21:52;101044.13;;;17.81;100.00
49377;BME280;35253;34.688;33.040;2024-01-25T11:24:24;101041.97;;;17.96;100.00
49377;BME280;35253;34.688;33.040;2024-01-25T11:26:54;101045.75;;;18.05;100.00
49377;BME280;35253;34.688;33.040;2024-01-25T11:29:21;101037.41;;;18.28;100.00
49377;BME280;35253;34.688;33.040;2024-01-25T11:31:52;101023.28;;;18.04;100.00
49377;BME280;35253;34.688;33.040;2024-01-25T11:34:18;101026.31;;;17.90;100.00
49377;BME280;35253;34.688;33.040;2024-01-25T11:36:44;101012.38;;;17.85;100.00
49377;BME280;35253;34.688;33.040;2024-01-25T11:39:14;101018.84;;;17.82;100.00
49377;BME280;35253;34.688;33.040;2024-01-25T11:41:40;101016.72;;;17.97;100.00
49377;BME280;35253;34.688;33.040;2024-01-25T11:44:07;101009.69;;;18.06;100.00
49377;BME280;35253;34.688;33.040;2024-01-25T11:46:32;101018.56;;;18.17;100.00
49377;BME280;35253;34.688;33.040;2024-01-25T11:48:58;101015.72;;;18.81;100.00
49377;BME280;35253;34.688;33.040;2024-01-25T11:51:24;101011.50;;;19.38;100.00
49377;BME280;35253;34.688;33.040;2024-01-25T11:53:50;101015.66;;;19.42;100.00
49377;BME280;35253;34.688;33.040;2024-01-25T11:56:28;101016.00;;;19.77;100.00
49377;BME280;35253;34.688;33.040;2024-01-25T11:58:55;101009.06;;;19.74;100.00
49377;BME280;35253;34.688;33.040;2024-01-25T12:01:23;101015.97;;;19.58;100.00
49377;BME280;35253;34.688;33.040;2024-01-25T12:03:49;101002.41;;;20.54;100.00
49377;BME280;35253;34.688;33.040;2024-01-25T12:06:15;101006.72;;;20.47;100.00
49377;BME280;35253;34.688;33.040;2024-01-25T12:08:42;101003.59;;;20.42;100.00
49377;BME280;35253;34.688;33.040;2024-01-25T12:11:09;100999.59;;;20.46;100.00
49377;BME280;35253;34.688;33.040;2024-01-25T12:13:35;100998.50;;;19.71;100.00
49377;BME280;35253;34.688;33.040;2024-01-25T12:16:05;100996.94;;;19.69;100.00
49377;BME280;35253;34.688;33.040;2024-01-25T12:18:31;100996.66;;;19.91;100.00
49377;BME280;35253;34.688;33.040;2024-01-25T12:21:02;100992.66;;;19.76;100.00
49377;BME280;35253;34.688;33.040;2024-01-25T12:23:35;100985.34;;;20.24;100.00
49377;BME280;35253;34.688;33.040;2024-01-25T12:26:03;100982.81;;;19.46;100.00